Time;durP1;ratioP1;P1;durP2;ratioP2;P2;SDS_P1;SDS_P2;PMS_P1;PMS_P2;Temp;Humidity;BMP_temperature;BMP_pressure;BME280_temperature;BME280_humidity;BME280_pressure;Samples;Min_cycle;Max_cycle;Signal;HPM_P1;HPM_P2
2022/06/05 00:01:24;;;;;;;9.30;4.70;;;;;;;21.37;100.00;-24410.94;5072196;28;20246;-55
2022/06/05 00:03:55;;;;;;;6.07;3.97;;;;;;;21.55;100.00;-24416.06;5072408;28;20225;-57
2022/06/05 00:06:49;;;;;;;9.02;3.92;;;;;;;21.70;100.00;-24420.06;5072198;28;20216;-56
2022/06/05 00:09:39;;;;;;;8.25;4.05;;;;;;;21.71;100.00;-24420.22;5067904;28;20194;-56
2022/06/05 00:12:11;;;;;;;6.32;4.15;;;;;;;21.44;100.00;-24412.88;5072125;28;20241;-56
2022/06/05 00:14:37;;;;;;;5.45;3.97;;;;;;;21.65;100.00;-24418.69;5072235;28;20544;-56
2022/06/05 00:17:09;;;;;;;6.55;4.35;;;;;;;21.29;100.00;-24408.84;5072128;28;20181;-56
2022/06/05 00:19:41;;;;;;;5.93;3.97;;;;;;;21.46;100.00;-24413.56;5072078;28;20674;-56
2022/06/05 00:22:07;;;;;;;7.07;3.70;;;;;;;21.59;100.00;-24417.03;5071913;28;20655;-56
2022/06/05 00:24:33;;;;;;;7.03;4.13;;;;;;;21.33;100.00;-24409.97;5072416;28;20186;-55
2022/06/05 00:27:21;;;;;;;7.57;4.38;;;;;;;21.07;100.00;-24402.75;5071963;28;20269;-55
2022/06/05 00:29:46;;;;;;;11.20;4.32;;;;;;;21.37;100.00;-24410.94;5071907;28;20202;-56
2022/06/05 00:32:18;;;;;;;6.32;3.90;;;;;;;21.19;100.00;-24406.06;5071846;28;20166;-56
2022/06/05 00:34:43;;;;;;;8.35;4.40;;;;;;;21.19;100.00;-24406.06;5071886;28;20164;-56
2022/06/05 00:37:25;;;;;;;5.97;3.70;;;;;;;20.81;100.00;-24395.66;5071837;28;20261;-56
2022/06/05 00:40:12;;;;;;;5.35;3.78;;;;;;;20.97;100.00;-24399.97;5071922;28;20166;-56
2022/06/05 00:42:37;;;;;;;6.65;4.60;;;;;;;20.93;100.00;-24398.88;5072357;28;20528;-56
2022/06/05 00:45:11;;;;;;;7.60;3.88;;;;;;;20.58;100.00;-24389.28;5072133;28;20629;-56
2022/06/05 00:47:40;;;;;;;11.90;4.55;;;;;;;20.82;100.00;-24395.94;5072188;28;20245;-56
2022/06/05 00:50:15;;;;;;;7.00;4.13;;;;;;;20.92;100.00;-24398.72;5071698;28;20190;-56
2022/06/05 00:52:44;;;;;;;7.68;4.55;;;;;;;20.69;100.00;-24392.47;5071517;28;20162;-56
2022/06/05 00:55:10;;;;;;;8.15;4.10;;;;;;;20.52;100.00;-24387.75;5071708;28;20174;-56
2022/06/05 00:57:37;;;;;;;8.02;4.82;;;;;;;20.78;100.00;-24394.69;5071606;28;20178;-56
2022/06/05 01:00:08;;;;;;;6.43;4.47;;;;;;;20.54;100.00;-24388.19;5071953;28;20189;-56
2022/06/05 01:02:34;;;;;;;7.45;4.45;;;;;;;20.54;100.00;-24388.19;5071746;28;20213;-56
2022/06/05 01:04:59;;;;;;;5.65;3.90;;;;;;;20.89;100.00;-24397.75;5071851;28;20185;-56
2022/06/05 01:07:25;;;;;;;6.78;4.63;;;;;;;20.97;100.00;-24400.13;5071523;28;20199;-56
2022/06/05 01:09:52;;;;;;;10.68;4.65;;;;;;;20.75;100.00;-24393.88;5071520;28;20630;-56
2022/06/05 01:12:36;;;;;;;7.70;4.70;;;;;;;20.79;100.00;-24395.13;5073756;28;20212;-56
2022/06/05 01:15:16;;;;;;;7.10;4.80;;;;;;;20.84;100.00;-24396.50;5075808;28;20175;-56
2022/06/05 01:18:14;;;;;;;6.60;4.50;;;;;;;20.77;100.00;-24394.56;5075560;28;20223;-56
2022/06/05 01:21:30;;;;;;;6.93;4.20;;;;;;;20.77;100.00;-24394.56;5057773;28;20554;-56
2022/06/05 01:24:03;;;;;;;9.10;5.35;;;;;;;20.86;100.00;-24396.91;5000001;28;20387;-55
2022/06/05 01:26:40;;;;;;;8.27;5.53;;;;;;;20.70;100.00;-24392.75;5077627;28;20205;-55
2022/06/05 01:29:16;;;;;;;8.93;4.53;;;;;;;20.15;100.00;-24377.63;5092628;28;20238;-55
2022/06/05 01:31:58;;;;;;;6.82;4.32;;;;;;;20.00;100.00;-24373.31;5093915;28;20245;-55
2022/06/05 01:34:34;;;;;;;7.63;4.43;;;;;;;20.33;100.00;-24382.34;5094309;28;20181;-55
2022/06/05 01:37:18;;;;;;;7.32;5.20;;;;;;;20.46;100.00;-24385.97;5086554;28;20176;-55
2022/06/05 01:39:55;;;;;;;8.95;5.20;;;;;;;20.31;100.00;-24381.78;5094564;28;20668;-55
2022/06/05 01:42:35;;;;;;;10.02;5.10;;;;;;;19.92;100.00;-24371.22;5093230;28;20214;-55
2022/06/05 01:45:23;;;;;;;7.57;4.93;;;;;;;20.17;100.00;-24378.19;5091866;28;20246;-55
2022/06/05 01:47:54;;;;;;;7.85;5.28;;;;;;;20.23;100.00;-24379.72;5093300;28;20177;-55
2022/06/05 01:50:38;;;;;;;7.97;4.78;;;;;;;20.15;100.00;-24377.63;5089594;28;20200;-56
2022/06/05 01:53:21;;;;;;;7.75;5.05;;;;;;;19.92;100.00;-24371.09;5091711;28;20319;-55
2022/06/05 01:55:54;;;;;;;8.05;4.80;;;;;;;20.05;100.00;-24374.72;5093525;28;20648;-56
2022/06/05 01:58:26;;;;;;;7.72;4.68;;;;;;;20.15;100.00;-24377.63;5089823;28;20203;-56
2022/06/05 02:00:57;;;;;;;6.68;4.75;;;;;;;20.11;100.00;-24376.50;5084333;28;20643;-55
2022/06/05 02:03:32;;;;;;;8.35;5.13;;;;;;;20.21;100.00;-24379.16;5092262;28;20249;-54
2022/06/05 02:06:03;;;;;;;7.85;5.07;;;;;;;20.21;100.00;-24379.28;5092890;28;20186;-55
2022/06/05 02:08:36;;;;;;;7.38;4.93;;;;;;;20.27;100.00;-24380.97;5093371;28;20181;-55
2022/06/05 02:11:12;;;;;;;6.88;4.60;;;;;;;19.82;100.00;-24368.47;5092303;28;20243;-56
2022/06/05 02:13:37;;;;;;;9.02;4.72;;;;;;;19.91;100.00;-24370.81;5093839;28;20185;-56
2022/06/05 02:16:03;;;;;;;7.28;4.90;;;;;;;19.85;100.00;-24369.44;5094086;28;20257;-55
2022/06/05 02:18:28;;;;;;;6.25;4.38;;;;;;;20.29;100.00;-24381.38;5093177;28;20212;-56
2022/06/05 02:20:54;;;;;;;8.35;4.85;;;;;;;20.01;100.00;-24373.59;5093817;28;20173;-56
2022/06/05 02:23:24;;;;;;;8.05;4.80;;;;;;;20.27;100.00;-24380.97;5092099;28;20651;-56
2022/06/05 02:25:50;;;;;;;8.70;5.22;;;;;;;19.77;100.00;-24367.19;5092734;28;20190;-57
2022/06/05 02:28:18;;;;;;;8.85;4.82;;;;;;;20.10;100.00;-24376.09;5092487;28;20643;-56
2022/06/05 02:30:49;;;;;;;12.45;5.63;;;;;;;20.23;100.00;-24379.84;5092452;28;20729;-56
2022/06/05 02:33:32;;;;;;;8.27;5.18;;;;;;;20.31;100.00;-24381.78;5091834;28;20176;-56
2022/06/05 02:36:08;;;;;;;10.65;5.40;;;;;;;20.22;100.00;-24379.56;5085064;28;20177;-56
2022/06/05 02:39:03;;;;;;;7.43;4.90;;;;;;;19.76;100.00;-24366.78;5093614;28;20635;-56
2022/06/05 02:42:02;;;;;;;7.57;4.72;;;;;;;20.11;100.00;-24376.50;5089600;28;20181;-55
2022/06/05 02:44:43;;;;;;;7.88;4.90;;;;;;;19.91;100.00;-24370.97;5089527;28;20243;-55
2022/06/05 02:47:31;;;;;;;7.90;4.72;;;;;;;20.33;100.00;-24382.50;5092722;28;20177;-56
2022/06/05 02:50:24;;;;;;;9.20;5.13;;;;;;;20.49;100.00;-24386.78;5092558;28;20263;-56
2022/06/05 02:53:00;;;;;;;8.77;5.22;;;;;;;20.41;100.00;-24384.56;5092790;28;20189;-55
2022/06/05 02:55:26;;;;;;;9.88;5.38;;;;;;;20.54;100.00;-24388.31;5092376;28;20266;-55
2022/06/05 02:57:51;;;;;;;9.23;5.28;;;;;;;20.07;100.00;-24375.25;5091706;28;20205;-56
2022/06/05 03:00:21;;;;;;;8.75;4.80;;;;;;;20.44;100.00;-24385.53;5091771;28;20619;-56
2022/06/05 03:05:33;;;;;;;8.75;5.18;;;;;;;20.36;100.00;-24383.19;5089599;28;20197;-56
2022/06/05 03:07:59;;;;;;;8.98;5.65;;;;;;;20.97;100.00;-24399.97;5092575;28;20238;-56
2022/06/05 03:10:24;;;;;;;8.13;5.32;;;;;;;20.72;100.00;-24393.19;5091927;28;20205;-56
2022/06/05 03:12:50;;;;;;;8.43;4.63;;;;;;;20.81;100.00;-24395.66;5091665;28;20185;-56
2022/06/05 03:15:16;;;;;;;6.38;4.32;;;;;;;20.72;100.00;-24393.19;5092387;28;20181;-56
2022/06/05 03:17:43;;;;;;;8.38;4.80;;;;;;;21.14;100.00;-24404.84;5091507;28;20632;-56
2022/06/05 03:20:10;;;;;;;7.90;5.10;;;;;;;21.02;100.00;-24401.50;5092185;28;20615;-57
2022/06/05 03:22:36;;;;;;;9.82;5.85;;;;;;;21.35;100.00;-24410.38;5091082;28;20234;-57
2022/06/05 03:25:02;;;;;;;8.13;4.78;;;;;;;21.89;100.00;-24425.19;5091576;28;20189;-56
2022/06/05 03:27:30;;;;;;;8.00;5.53;;;;;;;22.03;100.00;-24429.22;5091690;28;20184;-55
2022/06/05 03:29:56;;;;;;;9.10;5.20;;;;;;;22.03;100.00;-24429.22;5091254;28;20204;-55
2022/06/05 03:32:23;;;;;;;7.20;4.72;;;;;;;22.22;100.00;-24434.34;5088284;28;20235;-56
2022/06/05 03:34:48;;;;;;;7.28;4.95;;;;;;;22.01;100.00;-24428.66;5090886;28;20180;-55
2022/06/05 03:37:14;;;;;;;8.15;5.22;;;;;;;22.11;100.00;-24431.28;5091651;28;20252;-55
2022/06/05 03:39:39;;;;;;;8.73;5.40;;;;;;;22.87;100.00;-24452.19;5090770;28;20560;-56
2022/06/05 03:42:06;;;;;;;9.02;4.93;;;;;;;23.86;100.00;-24479.13;5091152;28;20173;-56
2022/06/05 03:44:39;;;;;;;7.82;5.28;;;;;;;24.52;100.00;-24497.19;5091348;28;20652;-56
2022/06/05 03:47:05;;;;;;;8.00;4.75;;;;;;;25.53;100.00;-24524.72;5091466;28;20173;-56
2022/06/05 03:49:33;;;;;;;6.30;4.43;;;;;;;26.82;100.00;-24559.63;5090996;28;20181;-56
2022/06/05 03:51:58;;;;;;;6.18;4.63;;;;;;;27.26;100.00;-24571.56;5090366;28;20173;-56
2022/06/05 03:54:24;;;;;;;8.25;4.70;;;;;;;27.72;100.00;-24584.03;5091396;28;20210;-56
2022/06/05 03:56:49;;;;;;;8.02;4.55;;;;;;;28.07;100.00;-24593.47;5091856;28;20303;-56
2022/06/05 03:59:15;;;;;;;7.80;4.50;;;;;;;27.22;100.00;-24570.47;5091229;28;20218;-57
2022/06/05 04:01:41;;;;;;;13.50;4.78;;;;;;;25.91;100.00;-24534.91;5089969;28;20690;-56
2022/06/05 04:04:06;;;;;;;10.70;5.50;;;;;;;24.76;100.00;-24503.53;5091845;28;20233;-57
2022/06/05 04:06:33;;;;;;;9.35;5.57;;;;;;;24.59;100.00;-24498.97;5090918;28;20742;-56
2022/06/05 04:09:02;;;;;;;7.10;5.03;;;;;;;24.63;100.00;-24500.22;5091812;28;20181;-56
2022/06/05 04:11:29;;;;;;;10.00;5.18;;;;;;;24.45;100.00;-24495.25;5090667;28;20216;-57
2022/06/05 04:13:55;;;;;;;8.48;5.07;;;;;;;23.82;100.00;-24477.88;5090981;28;20272;-56
2022/06/05 04:16:24;;;;;;;7.93;5.43;;;;;;;23.46;100.00;-24468.22;5078724;28;20330;-56
2022/06/05 04:18:50;;;;;;;8.68;5.32;;;;;;;23.32;100.00;-24464.47;5091012;28;20560;-56
2022/06/05 04:21:20;;;;;;;10.48;5.30;;;;;;;23.28;100.00;-24463.38;5092413;28;20189;-56
2022/06/05 04:23:45;;;;;;;9.38;6.10;;;;;;;23.16;100.00;-24459.94;5091088;28;20181;-57
2022/06/05 04:26:14;;;;;;;7.47;5.30;;;;;;;23.24;100.00;-24462.28;5091409;28;20196;-56
2022/06/05 04:28:39;;;;;;;9.10;5.85;;;;;;;23.22;100.00;-24461.56;5090338;28;20279;-56
2022/06/05 04:31:18;;;;;;;10.13;6.07;;;;;;;22.83;100.00;-24451.09;5090376;28;20280;-56
2022/06/05 04:33:44;;;;;;;9.77;5.70;;;;;;;22.42;100.00;-24439.75;5090081;28;20221;-57
2022/06/05 04:36:09;;;;;;;9.82;6.15;;;;;;;22.43;100.00;-24440.00;5090993;28;20303;-56
2022/06/05 04:38:35;;;;;;;10.85;6.35;;;;;;;22.25;100.00;-24435.03;5091450;28;20177;-55
2022/06/05 04:41:00;;;;;;;12.25;5.75;;;;;;;22.72;100.00;-24447.91;5086944;28;20238;-56
2022/06/05 04:43:26;;;;;;;8.80;5.78;;;;;;;24.64;100.00;-24500.50;5088830;28;20252;-56
2022/06/05 04:45:51;;;;;;;9.10;5.57;;;;;;;25.79;100.00;-24531.75;5084353;28;20234;-57
2022/06/05 04:48:17;;;;;;;10.27;5.57;;;;;;;26.81;100.00;-24559.50;5083689;28;20185;-57
2022/06/05 04:50:42;;;;;;;8.43;5.72;;;;;;;27.05;100.00;-24565.94;5084735;28;20213;-55
2022/06/05 04:53:08;;;;;;;7.10;5.75;;;;;;;28.31;100.00;-24600.06;5082323;28;20183;-56
2022/06/05 04:55:36;;;;;;;9.85;5.50;;;;;;;29.08;100.00;-24620.69;5083829;28;20557;-58
2022/06/05 04:58:02;;;;;;;6.80;4.90;;;;;;;30.10;100.00;-24648.41;5084498;28;20180;-57
2022/06/05 05:00:27;;;;;;;7.43;5.45;;;;;;;29.84;99.79;-24641.44;5084698;28;20173;-57
2022/06/05 05:02:53;;;;;;;6.78;4.72;;;;;;;29.38;98.85;-24628.91;5083261;28;20224;-57
2022/06/05 05:05:18;;;;;;;6.55;4.55;;;;;;;28.91;100.00;-24616.31;5085377;28;20200;-57
2022/06/05 05:07:44;;;;;;;6.78;4.53;;;;;;;28.05;100.00;-24593.06;5083806;28;20176;-57
2022/06/05 05:10:10;;;;;;;7.03;4.78;;;;;;;29.06;99.68;-24620.28;5084325;28;20574;-57
2022/06/05 05:12:35;;;;;;;6.10;4.70;;;;;;;28.56;100.00;-24606.75;5084508;28;20286;-56
2022/06/05 05:15:01;;;;;;;7.00;4.65;;;;;;;27.78;100.00;-24585.69;5084203;28;20177;-56
2022/06/05 05:17:26;;;;;;;5.68;4.45;;;;;;;28.31;100.00;-24599.91;5083118;28;20655;-59
2022/06/05 05:19:51;;;;;;;5.80;4.35;;;;;;;28.57;100.00;-24606.88;5084399;28;20608;-58
2022/06/05 05:22:17;;;;;;;6.40;4.72;;;;;;;29.00;98.89;-24618.66;5084135;28;20254;-58
2022/06/05 05:24:43;;;;;;;5.05;4.28;;;;;;;28.54;99.43;-24606.22;5072410;28;20189;-59
2022/06/05 05:27:09;;;;;;;5.97;4.55;;;;;;;29.12;97.00;-24621.78;5083862;28;20225;-58
2022/06/05 05:29:34;;;;;;;5.88;4.43;;;;;;;29.20;96.78;-24623.97;5084727;28;20979;-57
2022/06/05 05:32:00;;;;;;;6.70;5.15;;;;;;;28.46;100.00;-24604.03;5082708;28;20192;-56
2022/06/05 05:34:25;;;;;;;6.00;4.70;;;;;;;27.86;100.00;-24587.88;5083612;28;20577;-57
2022/06/05 05:36:51;;;;;;;9.07;4.63;;;;;;;27.05;100.00;-24565.94;5083113;28;20208;-56
2022/06/05 05:42:07;;;;;;;11.63;5.35;;;;;;;27.38;100.00;-24574.72;5084092;28;20645;-58
2022/06/05 05:44:44;;;;;;;7.35;4.70;;;;;;;27.51;100.00;-24578.28;5083782;28;20166;-57
2022/06/05 05:47:22;;;;;;;8.60;4.55;;;;;;;27.39;100.00;-24575.13;5083837;28;20177;-57
2022/06/05 05:49:52;;;;;;;6.63;5.03;;;;;;;26.79;100.00;-24558.78;5083467;28;20718;-56
2022/06/05 05:52:18;;;;;;;7.70;5.20;;;;;;;26.78;100.00;-24558.53;5082954;28;20565;-57
2022/06/05 05:54:44;;;;;;;7.28;4.82;;;;;;;26.57;100.00;-24552.91;5084109;28;20635;-57
2022/06/05 05:57:09;;;;;;;6.40;4.95;;;;;;;26.75;100.00;-24557.84;5084208;28;20595;-56
2022/06/05 05:59:35;;;;;;;8.55;4.57;;;;;;;26.87;100.00;-24561.00;5086396;28;20619;-57
2022/06/05 06:02:01;;;;;;;5.88;4.43;;;;;;;27.14;100.00;-24568.28;5086491;28;20558;-56
2022/06/05 06:04:27;;;;;;;6.68;4.45;;;;;;;27.49;100.00;-24577.72;5076705;28;20344;-57
2022/06/05 06:06:53;;;;;;;6.72;4.72;;;;;;;27.15;100.00;-24568.69;5086593;28;20192;-57
2022/06/05 06:09:19;;;;;;;8.15;4.88;;;;;;;26.58;100.00;-24553.19;5087054;28;20664;-57
2022/06/05 06:11:46;;;;;;;6.70;4.97;;;;;;;26.61;100.00;-24554.00;5085786;28;22769;-58
2022/06/05 06:14:11;;;;;;;7.85;5.03;;;;;;;26.50;100.00;-24550.84;5087888;28;20178;-57
2022/06/05 06:16:37;;;;;;;8.00;5.25;;;;;;;26.76;100.00;-24558.13;5086925;28;20211;-57
2022/06/05 06:19:04;;;;;;;7.82;5.25;;;;;;;26.40;100.00;-24548.09;5076017;28;20563;-57
2022/06/05 06:21:29;;;;;;;7.43;5.43;;;;;;;26.76;100.00;-24557.97;5088148;28;20640;-58
2022/06/05 06:23:55;;;;;;;8.25;5.70;;;;;;;26.43;100.00;-24548.91;5085664;28;20212;-58
2022/06/05 06:26:21;;;;;;;6.72;5.00;;;;;;;26.76;100.00;-24557.97;5087312;28;20209;-59
2022/06/05 06:28:47;;;;;;;9.95;5.65;;;;;;;27.07;100.00;-24566.34;5087237;28;21007;-58
2022/06/05 06:31:16;;;;;;;6.95;5.05;;;;;;;27.38;100.00;-24574.84;5086491;28;20201;-59
2022/06/05 06:33:41;;;;;;;8.30;5.20;;;;;;;26.96;100.00;-24563.47;5088289;28;20181;-59
2022/06/05 06:36:10;;;;;;;8.38;4.82;;;;;;;27.18;100.00;-24569.50;5087629;28;20595;-57
2022/06/05 06:38:36;;;;;;;9.35;5.22;;;;;;;26.80;100.00;-24559.06;5085460;28;20186;-57
2022/06/05 06:41:07;;;;;;;7.60;5.32;;;;;;;27.44;100.00;-24576.34;5087067;28;20169;-58
2022/06/05 06:43:34;;;;;;;7.40;5.07;;;;;;;27.59;100.00;-24580.47;5088311;28;20183;-58
2022/06/05 06:46:00;;;;;;;8.02;5.40;;;;;;;27.80;100.00;-24586.22;5085699;28;20306;-59
2022/06/05 06:48:27;;;;;;;9.52;5.22;;;;;;;27.98;100.00;-24591.16;5087159;28;20946;-57
2022/06/05 06:50:54;;;;;;;6.82;4.95;;;;;;;28.13;100.00;-24595.13;5087472;28;20285;-58
2022/06/05 06:53:20;;;;;;;12.43;5.15;;;;;;;27.92;96.96;-24589.50;5091285;28;20173;-58
2022/06/05 06:55:46;;;;;;;8.05;4.95;;;;;;;28.35;97.16;-24601.16;5092743;28;20207;-57
2022/06/05 06:58:11;;;;;;;6.32;4.85;;;;;;;27.97;97.98;-24590.88;5091064;28;20189;-56
2022/06/05 07:00:37;;;;;;;7.32;4.93;;;;;;;28.42;97.92;-24603.06;5093318;28;20192;-56
2022/06/05 07:03:03;;;;;;;7.82;4.95;;;;;;;28.55;96.12;-24606.63;5092229;28;20271;-57
2022/06/05 07:05:28;;;;;;;7.72;5.35;;;;;;;28.61;96.42;-24608.13;5093332;28;20637;-56
2022/06/05 07:07:54;;;;;;;12.07;5.50;;;;;;;28.63;95.33;-24608.53;5092411;28;20216;-57
2022/06/05 07:10:19;;;;;;;6.70;5.35;;;;;;;28.34;94.55;-24600.75;5092870;28;20205;-57
2022/06/05 07:12:45;;;;;;;7.88;5.10;;;;;;;28.44;95.14;-24603.47;5092299;28;20192;-56
2022/06/05 07:15:10;;;;;;;10.15;5.85;;;;;;;28.84;95.61;-24614.41;5093102;28;20177;-58
2022/06/05 07:17:36;;;;;;;8.82;5.00;;;;;;;29.48;91.46;-24631.63;5092069;28;20184;-57
2022/06/05 07:20:02;;;;;;;7.15;4.82;;;;;;;29.33;92.69;-24627.66;5092970;28;20663;-57
2022/06/05 07:22:27;;;;;;;8.38;5.25;;;;;;;29.33;92.86;-24627.53;5092380;28;20246;-57
2022/06/05 07:24:53;;;;;;;7.03;5.47;;;;;;;29.23;91.83;-24624.94;5092886;28;20173;-58
2022/06/05 07:27:19;;;;;;;7.43;4.95;;;;;;;29.32;91.89;-24627.25;5091923;28;20180;-56
2022/06/05 07:29:44;;;;;;;6.32;4.45;;;;;;;29.45;90.76;-24630.66;5092685;28;20177;-56
2022/06/05 07:32:11;;;;;;;6.57;4.25;;;;;;;29.29;92.86;-24626.44;5091833;28;20181;-56
2022/06/05 07:34:37;;;;;;;6.63;5.03;;;;;;;29.22;93.01;-24624.66;5092707;28;20224;-56
2022/06/05 07:37:03;;;;;;;7.13;4.70;;;;;;;28.74;93.38;-24611.69;5092191;28;20648;-56
2022/06/05 07:39:29;;;;;;;6.90;5.13;;;;;;;28.77;93.94;-24612.38;5092335;28;20567;-57
2022/06/05 07:41:58;;;;;;;7.40;4.97;;;;;;;28.90;94.77;-24616.06;5091871;28;20242;-57
2022/06/05 07:44:25;;;;;;;6.57;5.03;;;;;;;28.99;93.90;-24618.38;5090553;28;20183;-57
2022/06/05 07:46:51;;;;;;;7.60;4.95;;;;;;;29.33;93.37;-24627.66;5092103;28;20248;-57
2022/06/05 07:49:16;;;;;;;7.15;4.47;;;;;;;28.95;93.87;-24617.41;5092049;28;20177;-57
2022/06/05 07:54:26;;;;;;;7.20;5.10;;;;;;;29.09;91.06;-24620.97;5092403;28;20219;-57
2022/06/05 07:56:53;;;;;;;6.43;4.93;;;;;;;29.76;89.68;-24639.13;5091637;28;20543;-57
2022/06/05 07:59:18;;;;;;;8.10;4.63;;;;;;;29.91;88.65;-24643.09;5091772;28;20253;-56
2022/06/05 08:01:44;;;;;;;6.93;4.72;;;;;;;29.88;88.60;-24642.25;5091604;28;20271;-56
2022/06/05 08:04:10;;;;;;;6.78;4.90;;;;;;;30.08;89.69;-24647.72;5090630;28;20661;-56
2022/06/05 08:06:36;;;;;;;6.45;4.70;;;;;;;30.03;88.13;-24646.50;5092040;28;20196;-56
2022/06/05 08:09:04;;;;;;;7.57;5.00;;;;;;;29.99;87.57;-24645.28;5091368;28;20203;-57
2022/06/05 08:11:32;;;;;;;7.22;4.72;;;;;;;30.25;88.03;-24652.50;5092001;28;20200;-57
2022/06/05 08:13:58;;;;;;;6.53;4.70;;;;;;;29.95;88.28;-24644.19;5091205;28;20184;-57
2022/06/05 08:16:24;;;;;;;10.60;5.30;;;;;;;30.09;89.10;-24648.00;5092048;28;20177;-57
2022/06/05 08:18:51;;;;;;;10.35;5.65;;;;;;;29.83;88.53;-24641.03;5091014;28;20186;-56
2022/06/05 08:21:18;;;;;;;6.97;4.95;;;;;;;30.19;87.07;-24650.88;5091231;28;20176;-57
2022/06/05 08:23:44;;;;;;;6.63;5.05;;;;;;;30.61;87.39;-24662.03;5090601;28;20181;-56
2022/06/05 08:26:09;;;;;;;6.82;4.55;;;;;;;30.57;85.71;-24660.94;5091332;28;20222;-56
2022/06/05 08:28:36;;;;;;;6.15;4.95;;;;;;;30.55;86.77;-24660.53;5091045;28;20188;-56
2022/06/05 08:31:02;;;;;;;7.15;4.78;;;;;;;30.87;85.39;-24668.97;5091752;28;20236;-57
2022/06/05 08:33:28;;;;;;;9.00;5.25;;;;;;;31.37;84.13;-24682.44;5090898;28;20985;-56
2022/06/05 08:35:53;;;;;;;7.13;5.25;;;;;;;30.81;83.94;-24667.34;5091769;28;20168;-58
2022/06/05 08:41:28;;;;;;;7.20;5.25;;;;;;;31.16;83.08;-24676.88;5091441;28;20237;-56
2022/06/05 08:44:04;;;;;;;7.15;5.20;;;;;;;31.08;82.03;-24674.84;5090373;28;20269;-56
2022/06/05 08:46:39;;;;;;;9.95;5.32;;;;;;;31.10;82.03;-24675.38;5091463;28;20176;-56
2022/06/05 08:49:11;;;;;;;9.10;4.93;;;;;;;31.22;80.65;-24678.50;5090505;28;20658;-56
2022/06/05 08:51:52;;;;;;;7.03;5.18;;;;;;;31.37;81.70;-24682.59;5091137;28;20825;-57
2022/06/05 08:54:23;;;;;;;7.60;5.25;;;;;;;31.36;79.43;-24682.31;5090484;28;20185;-56
2022/06/05 08:57:07;;;;;;;6.45;4.88;;;;;;;31.28;78.65;-24680.13;5090743;28;20177;-56
2022/06/05 08:59:46;;;;;;;5.70;4.60;;;;;;;31.85;78.04;-24695.50;5090612;28;20249;-56
2022/06/05 09:02:24;;;;;;;7.05;5.10;;;;;;;31.58;76.99;-24688.03;5090840;28;20651;-56
2022/06/05 09:05:00;;;;;;;8.00;5.38;;;;;;;31.82;78.50;-24694.69;5091263;28;20510;-55
2022/06/05 09:07:34;;;;;;;7.18;5.07;;;;;;;31.64;76.69;-24689.78;5090525;28;20183;-56
2022/06/05 09:10:07;;;;;;;6.35;5.03;;;;;;;31.56;75.09;-24687.63;5091166;28;20192;-56
2022/06/05 09:12:43;;;;;;;6.15;4.88;;;;;;;32.10;75.91;-24702.16;5090918;28;20628;-58
2022/06/05 09:15:21;;;;;;;7.78;5.30;;;;;;;32.65;75.24;-24716.81;5091290;28;20191;-57
2022/06/05 09:17:57;;;;;;;8.82;4.43;;;;;;;32.42;72.35;-24710.84;5090534;28;20225;-56
2022/06/05 09:20:31;;;;;;;6.57;4.55;;;;;;;32.21;69.81;-24705.16;5091418;28;20669;-56
2022/06/05 09:23:02;;;;;;;6.47;4.45;;;;;;;32.40;67.42;-24710.31;5090161;28;20180;-57
2022/06/05 09:25:33;;;;;;;6.35;4.80;;;;;;;32.78;67.85;-24720.47;5090791;28;20202;-57
2022/06/05 09:28:01;;;;;;;5.95;4.70;;;;;;;32.87;65.13;-24722.78;5090313;28;20180;-57
2022/06/05 09:30:36;;;;;;;8.13;4.40;;;;;;;32.88;63.43;-24723.06;5090512;28;20207;-57
2022/06/05 09:33:20;;;;;;;6.68;4.55;;;;;;;32.20;62.96;-24704.75;5083917;28;20184;-57
2022/06/05 09:35:50;;;;;;;4.78;4.15;;;;;;;32.43;62.68;-24710.97;5094672;28;20259;-57
2022/06/05 09:38:34;;;;;;;5.45;4.38;;;;;;;32.51;62.82;-24713.16;5094105;28;20195;-58
2022/06/05 09:41:11;;;;;;;4.45;4.03;;;;;;;32.92;63.15;-24724.16;5094121;28;20172;-56
2022/06/05 09:43:49;;;;;;;5.03;4.22;;;;;;;32.81;60.52;-24721.28;5094743;28;20259;-57
2022/06/05 09:46:32;;;;;;;6.10;4.07;;;;;;;33.27;58.10;-24733.50;5077699;28;20197;-57
2022/06/05 09:49:18;;;;;;;4.90;4.15;;;;;;;33.13;58.34;-24729.84;5094490;28;20179;-57
2022/06/05 09:51:45;;;;;;;5.32;4.25;;;;;;;33.42;57.51;-24737.41;5093979;28;20290;-57
2022/06/05 09:54:31;;;;;;;7.82;4.65;;;;;;;33.08;59.50;-24728.47;5094983;28;20199;-58
2022/06/05 10:00:01;;;;;;;5.95;4.50;;;;;;;33.15;59.29;-24730.38;5094657;28;20164;-58
2022/06/05 10:02:28;;;;;;;5.50;3.85;;;;;;;33.28;57.25;-24733.91;5085639;28;20695;-57
2022/06/05 10:04:54;;;;;;;6.93;4.35;;;;;;;32.61;56.09;-24715.72;5082429;28;20597;-57
2022/06/05 10:07:28;;;;;;;10.75;5.78;;;;;;;33.22;57.70;-24732.28;5084635;28;20255;-56
2022/06/05 10:09:55;;;;;;;6.35;4.43;;;;;;;33.32;54.82;-24734.72;5085273;28;20180;-58
2022/06/05 10:12:27;;;;;;;9.85;6.90;;;;;;;33.30;53.30;-24734.31;5082525;28;20231;-58
2022/06/05 10:15:18;;;;;;;10.40;6.32;;;;;;;33.11;55.82;-24729.28;5074719;28;20197;-57
2022/06/05 10:17:57;;;;;;;8.73;5.38;;;;;;;32.84;56.59;-24721.97;5074631;28;20869;-56
2022/06/05 10:21:00;;;;;;;5.10;4.53;;;;;;;33.21;55.02;-24732.00;5074063;28;20216;-55
2022/06/05 10:23:25;;;;;;;6.25;5.15;;;;;;;33.42;53.91;-24737.56;5074276;28;20161;-56
2022/06/05 10:26:15;;;;;;;5.63;4.70;;;;;;;33.28;53.69;-24733.75;5074281;28;20177;-56
2022/06/05 10:28:42;;;;;;;9.02;5.05;;;;;;;33.22;54.64;-24732.28;5074552;28;20265;-57
2022/06/05 10:31:12;;;;;;;8.48;4.65;;;;;;;33.52;52.24;-24740.25;5074309;28;20630;-58
2022/06/05 10:33:56;;;;;;;5.82;3.83;;;;;;;33.44;53.79;-24738.09;5073699;28;20602;-57
2022/06/05 10:36:43;;;;;;;8.23;4.10;;;;;;;33.39;52.82;-24736.75;5074069;28;20174;-58
2022/06/05 10:39:22;;;;;;;4.30;3.88;;;;;;;33.00;54.68;-24726.31;5073656;28;20189;-57
2022/06/05 10:41:53;;;;;;;9.50;5.47;;;;;;;33.46;53.51;-24738.50;5074326;28;20173;-57
2022/06/05 10:45:13;;;;;;;4.88;3.63;;;;;;;33.35;51.52;-24735.66;5073616;28;20557;-57
2022/06/05 10:47:41;;;;;;;12.70;7.35;;;;;;;32.72;54.05;-24718.72;5012100;28;20639;-56
2022/06/05 10:50:24;;;;;;;7.70;5.20;;;;;;;32.95;51.71;-24724.81;5069823;28;20217;-56
2022/06/05 10:52:55;;;;;;;6.65;4.50;;;;;;;33.36;51.87;-24735.78;5073723;28;20165;-57
2022/06/05 10:55:50;;;;;;;5.10;4.10;;;;;;;33.15;51.60;-24730.38;5074320;28;20213;-57
2022/06/05 10:58:38;;;;;;;5.00;3.88;;;;;;;33.54;51.56;-24740.66;5073361;28;20166;-56
2022/06/05 11:01:12;;;;;;;4.18;3.42;;;;;;;33.58;48.61;-24741.88;5073791;28;20223;-57
2022/06/05 11:04:06;;;;;;;4.53;3.45;;;;;;;33.77;50.32;-24746.91;5073262;28;20231;-57
2022/06/05 11:06:58;;;;;;;4.35;3.58;;;;;;;33.58;49.59;-24741.75;5074099;28;20165;-57
2022/06/05 11:09:42;;;;;;;5.38;3.50;;;;;;;33.62;47.11;-24742.84;5086199;28;20199;-57
2022/06/05 11:15:30;;;;;;;4.80;3.45;;;;;;;32.67;50.58;-24717.38;5093538;28;20202;-58
2022/06/05 11:18:17;;;;;;;5.03;3.63;;;;;;;33.02;52.60;-24726.72;5093030;28;20168;-62
2022/06/05 11:20:52;;;;;;;6.80;3.50;;;;;;;32.71;50.97;-24718.44;5073319;28;20180;-58
2022/06/05 11:23:21;;;;;;;5.10;3.70;;;;;;;32.99;50.33;-24725.91;5073490;28;20169;-59
2022/06/05 11:26:15;;;;;;;5.28;3.67;;;;;;;32.70;51.38;-24718.19;5077493;28;20666;-58
2022/06/05 11:29:11;;;;;;;8.43;4.25;;;;;;;33.09;50.24;-24728.75;5089960;28;20173;-59
2022/06/05 11:32:17;;;;;;;9.27;5.50;;;;;;;32.96;48.27;-24725.22;5083617;28;20696;-59
2022/06/05 11:35:09;;;;;;;10.82;7.20;;;;;;;33.10;50.02;-24728.88;5083709;28;20627;-59
2022/06/05 11:37:59;;;;;;;7.20;3.35;;;;;;;33.18;48.66;-24731.19;5071744;28;20196;-60
2022/06/05 11:40:45;;;;;;;4.28;3.20;;;;;;;33.28;49.28;-24733.75;5083873;28;20169;-57
2022/06/05 12:49:18;;;;;;;6.20;4.13;;;;;;;33.74;39.53;-24746.09;5108112;27;20564;-59
2022/06/05 12:52:07;;;;;;;6.88;5.00;;;;;;;33.83;39.78;-24748.53;5109261;28;20180;-61
2022/06/05 12:54:41;;;;;;;3.25;2.33;;;;;;;34.27;37.44;-24760.28;5109185;28;20173;-61
2022/06/05 12:57:14;;;;;;;3.33;2.45;;;;;;;34.03;35.87;-24753.81;5107533;28;20211;-57
2022/06/05 12:59:49;;;;;;;5.20;3.55;;;;;;;34.28;37.31;-24760.56;5109114;28;20171;-58
2022/06/05 13:02:34;;;;;;;4.60;2.70;;;;;;;34.11;37.38;-24755.97;5109580;28;20179;-61
2022/06/05 13:05:32;;;;;;;3.65;2.53;;;;;;;33.76;36.09;-24746.63;5101813;28;20757;-53